sensor_id;sensor_type;location;lat;lon;timestamp;temperature;humidity
54178;DHT22;40085;53.004;6.770;2023-04-10T00:01:39;7.30;99.90
54178;DHT22;40085;53.004;6.770;2023-04-10T00:04:07;7.30;99.90
54178;DHT22;40085;53.004;6.770;2023-04-10T00:06:34;7.20;1.00
54178;DHT22;40085;53.004;6.770;2023-04-10T00:08:59;7.20;99.90
54178;DHT22;40085;53.004;6.770;2023-04-10T00:11:26;7.20;15.10
54178;DHT22;40085;53.004;6.770;2023-04-10T00:13:52;7.20;1.00
54178;DHT22;40085;53.004;6.770;2023-04-10T00:16:18;7.20;99.90
54178;DHT22;40085;53.004;6.770;2023-04-10T00:18:43;8.00;99.90
54178;DHT22;40085;53.004;6.770;2023-04-10T00:21:09;7.10;46.40
54178;DHT22;40085;53.004;6.770;2023-04-10T00:23:35;7.10;99.90
54178;DHT22;40085;53.004;6.770;2023-04-10T00:26:01;7.00;99.90
54178;DHT22;40085;53.004;6.770;2023-04-10T00:28:27;7.00;99.90
54178;DHT22;40085;53.004;6.770;2023-04-10T00:30:52;7.00;99.90
54178;DHT22;40085;53.004;6.770;2023-04-10T00:33:18;7.00;1.00
54178;DHT22;40085;53.004;6.770;2023-04-10T00:35:44;6.90;99.90
54178;DHT22;40085;53.004;6.770;2023-04-10T00:38:09;6.90;99.90
54178;DHT22;40085;53.004;6.770;2023-04-10T00:40:35;6.90;1.00
54178;DHT22;40085;53.004;6.770;2023-04-10T00:43:00;6.90;99.90
54178;DHT22;40085;53.004;6.770;2023-04-10T00:45:26;6.90;60.10
54178;DHT22;40085;53.004;6.770;2023-04-10T00:47:52;6.80;99.90
54178;DHT22;40085;53.004;6.770;2023-04-10T00:50:19;6.80;99.90
54178;DHT22;40085;53.004;6.770;2023-04-10T00:52:45;6.80;1.00
54178;DHT22;40085;53.004;6.770;2023-04-10T00:55:11;6.80;99.90
54178;DHT22;40085;53.004;6.770;2023-04-10T00:57:37;6.80;99.90
54178;DHT22;40085;53.004;6.770;2023-04-10T01:00:03;6.80;99.90
54178;DHT22;40085;53.004;6.770;2023-04-10T01:02:29;6.80;99.90
54178;DHT22;40085;53.004;6.770;2023-04-10T01:04:56;6.80;99.90
54178;DHT22;40085;53.004;6.770;2023-04-10T01:15:39;6.70;99.90
54178;DHT22;40085;53.004;6.770;2023-04-10T01:18:23;6.60;99.90
54178;DHT22;40085;53.004;6.770;2023-04-10T01:20:51;6.60;99.90
54178;DHT22;40085;53.004;6.770;2023-04-10T01:23:40;6.50;99.90
54178;DHT22;40085;53.004;6.770;2023-04-10T01:26:11;6.50;17.10
54178;DHT22;40085;53.004;6.770;2023-04-10T01:29:00;6.50;99.90
54178;DHT22;40085;53.004;6.770;2023-04-10T01:31:57;6.40;55.60
54178;DHT22;40085;53.004;6.770;2023-04-10T01:34:32;6.40;1.00
54178;DHT22;40085;53.004;6.770;2023-04-10T01:37:02;6.40;99.90
54178;DHT22;40085;53.004;6.770;2023-04-10T01:39:30;6.40;1.00
54178;DHT22;40085;53.004;6.770;2023-04-10T01:41:58;6.40;99.90
54178;DHT22;40085;53.004;6.770;2023-04-10T01:44:28;6.30;99.90
54178;DHT22;40085;53.004;6.770;2023-04-10T01:46:55;6.30;99.90
54178;DHT22;40085;53.004;6.770;2023-04-10T01:49:25;6.30;1.00
54178;DHT22;40085;53.004;6.770;2023-04-10T01:51:51;6.30;99.90
54178;DHT22;40085;53.004;6.770;2023-04-10T01:54:20;6.30;99.90
54178;DHT22;40085;53.004;6.770;2023-04-10T01:56:45;6.20;91.40
54178;DHT22;40085;53.004;6.770;2023-04-10T01:59:11;6.20;99.90
54178;DHT22;40085;53.004;6.770;2023-04-10T02:01:37;6.20;99.90
54178;DHT22;40085;53.004;6.770;2023-04-10T02:04:02;6.20;90.50
54178;DHT22;40085;53.004;6.770;2023-04-10T02:06:31;6.20;66.90
54178;DHT22;40085;53.004;6.770;2023-04-10T02:09:55;6.20;90.60
54178;DHT22;40085;53.004;6.770;2023-04-10T02:12:05;6.20;1.00
54178;DHT22;40085;53.004;6.770;2023-04-10T02:14:32;6.20;1.00
54178;DHT22;40085;53.004;6.770;2023-04-10T02:17:01;6.20;34.70
54178;DHT22;40085;53.004;6.770;2023-04-10T02:19:28;6.20;94.50
54178;DHT22;40085;53.004;6.770;2023-04-10T02:21:56;6.10;99.90
54178;DHT22;40085;53.004;6.770;2023-04-10T02:24:23;6.30;99.90
54178;DHT22;40085;53.004;6.770;2023-04-10T02:26:51;6.20;99.90
54178;DHT22;40085;53.004;6.770;2023-04-10T02:29:17;6.20;99.90
54178;DHT22;40085;53.004;6.770;2023-04-10T02:31:44;6.10;1.00
54178;DHT22;40085;53.004;6.770;2023-04-10T02:34:10;6.10;99.90
54178;DHT22;40085;53.004;6.770;2023-04-10T02:36:37;6.20;81.30
54178;DHT22;40085;53.004;6.770;2023-04-10T02:39:03;6.20;99.90
54178;DHT22;40085;53.004;6.770;2023-04-10T02:41:29;6.20;99.90
54178;DHT22;40085;53.004;6.770;2023-04-10T02:43:54;6.20;1.00
54178;DHT22;40085;53.004;6.770;2023-04-10T02:46:20;6.20;99.90
54178;DHT22;40085;53.004;6.770;2023-04-10T02:48:46;6.20;99.90
54178;DHT22;40085;53.004;6.770;2023-04-10T02:51:12;6.20;99.90
54178;DHT22;40085;53.004;6.770;2023-04-10T02:53:38;6.20;90.40
54178;DHT22;40085;53.004;6.770;2023-04-10T02:56:04;6.20;99.90
54178;DHT22;40085;53.004;6.770;2023-04-10T02:58:31;6.10;1.00
54178;DHT22;40085;53.004;6.770;2023-04-10T03:00:57;6.10;99.90
54178;DHT22;40085;53.004;6.770;2023-04-10T03:03:22;6.10;99.90
54178;DHT22;40085;53.004;6.770;2023-04-10T03:05:48;6.10;1.00
54178;DHT22;40085;53.004;6.770;2023-04-10T03:08:17;6.10;99.90
54178;DHT22;40085;53.004;6.770;2023-04-10T03:10:46;6.10;1.00
54178;DHT22;40085;53.004;6.770;2023-04-10T03:13:15;6.10;99.90
54178;DHT22;40085;53.004;6.770;2023-04-10T03:15:41;6.10;99.90
54178;DHT22;40085;53.004;6.770;2023-04-10T03:18:07;6.10;1.00
54178;DHT22;40085;53.004;6.770;2023-04-10T03:20:35;6.10;99.90
54178;DHT22;40085;53.004;6.770;2023-04-10T03:23:01;6.10;1.00
54178;DHT22;40085;53.004;6.770;2023-04-10T03:25:28;6.10;1.00
54178;DHT22;40085;53.004;6.770;2023-04-10T03:27:54;6.10;99.90
54178;DHT22;40085;53.004;6.770;2023-04-10T03:30:20;6.10;1.00
54178;DHT22;40085;53.004;6.770;2023-04-10T03:32:45;6.10;99.90
54178;DHT22;40085;53.004;6.770;2023-04-10T03:35:11;6.20;99.90
54178;DHT22;40085;53.004;6.770;2023-04-10T03:37:37;6.20;99.90
54178;DHT22;40085;53.004;6.770;2023-04-10T03:40:07;6.20;87.60
54178;DHT22;40085;53.004;6.770;2023-04-10T03:42:33;6.20;99.90
54178;DHT22;40085;53.004;6.770;2023-04-10T03:44:59;6.20;1.00
54178;DHT22;40085;53.004;6.770;2023-04-10T03:47:27;6.20;93.10
54178;DHT22;40085;53.004;6.770;2023-04-10T03:49:52;6.20;55.20
54178;DHT22;40085;53.004;6.770;2023-04-10T03:52:18;6.20;99.90
54178;DHT22;40085;53.004;6.770;2023-04-10T03:54:43;6.20;99.90
54178;DHT22;40085;53.004;6.770;2023-04-10T03:57:09;6.20;1.00
54178;DHT22;40085;53.004;6.770;2023-04-10T03:59:35;6.20;85.50
54178;DHT22;40085;53.004;6.770;2023-04-10T04:02:00;6.20;99.90
54178;DHT22;40085;53.004;6.770;2023-04-10T04:04:26;6.20;99.90
54178;DHT22;40085;53.004;6.770;2023-04-10T04:06:52;6.20;99.90
54178;DHT22;40085;53.004;6.770;2023-04-10T04:09:18;6.10;99.90
54178;DHT22;40085;53.004;6.770;2023-04-10T04:11:43;6.10;63.90
54178;DHT22;40085;53.004;6.770;2023-04-10T04:14:09;6.10;99.90
54178;DHT22;40085;53.004;6.770;2023-04-10T04:16:34;6.10;32.30
54178;DHT22;40085;53.004;6.770;2023-04-10T04:19:00;6.20;1.00
54178;DHT22;40085;53.004;6.770;2023-04-10T04:21:26;6.20;99.90
54178;DHT22;40085;53.004;6.770;2023-04-10T04:23:51;6.20;99.90
54178;DHT22;40085;53.004;6.770;2023-04-10T04:26:17;6.20;99.90
54178;DHT22;40085;53.004;6.770;2023-04-10T04:28:43;6.20;99.90
54178;DHT22;40085;53.004;6.770;2023-04-10T04:31:08;6.20;99.90
54178;DHT22;40085;53.004;6.770;2023-04-10T04:33:34;6.20;1.00
54178;DHT22;40085;53.004;6.770;2023-04-10T04:36:00;6.20;81.00
54178;DHT22;40085;53.004;6.770;2023-04-10T04:38:25;6.20;1.00
54178;DHT22;40085;53.004;6.770;2023-04-10T04:40:51;6.30;1.00
54178;DHT22;40085;53.004;6.770;2023-04-10T04:43:16;6.30;99.90
54178;DHT22;40085;53.004;6.770;2023-04-10T04:45:42;6.20;99.90
54178;DHT22;40085;53.004;6.770;2023-04-10T04:48:08;6.30;99.90
54178;DHT22;40085;53.004;6.770;2023-04-10T04:50:33;6.30;19.60
54178;DHT22;40085;53.004;6.770;2023-04-10T04:52:59;6.20;1.00
54178;DHT22;40085;53.004;6.770;2023-04-10T04:55:25;6.30;99.90
54178;DHT22;40085;53.004;6.770;2023-04-10T04:57:50;6.30;1.00
54178;DHT22;40085;53.004;6.770;2023-04-10T05:00:16;6.30;99.90
54178;DHT22;40085;53.004;6.770;2023-04-10T05:02:41;6.30;99.90
54178;DHT22;40085;53.004;6.770;2023-04-10T05:05:07;6.30;99.90
54178;DHT22;40085;53.004;6.770;2023-04-10T05:07:33;6.30;99.90
54178;DHT22;40085;53.004;6.770;2023-04-10T05:09:58;6.30;1.00
54178;DHT22;40085;53.004;6.770;2023-04-10T05:12:24;6.40;99.90
54178;DHT22;40085;53.004;6.770;2023-04-10T05:14:50;6.90;99.90
54178;DHT22;40085;53.004;6.770;2023-04-10T05:17:16;6.40;99.90
54178;DHT22;40085;53.004;6.770;2023-04-10T05:19:42;6.50;29.40
54178;DHT22;40085;53.004;6.770;2023-04-10T05:22:07;6.50;99.90
54178;DHT22;40085;53.004;6.770;2023-04-10T05:24:33;6.50;99.90
54178;DHT22;40085;53.004;6.770;2023-04-10T05:26:59;6.50;99.90
54178;DHT22;40085;53.004;6.770;2023-04-10T05:29:25;6.00;1.00
54178;DHT22;40085;53.004;6.770;2023-04-10T05:31:50;6.70;99.90
54178;DHT22;40085;53.004;6.770;2023-04-10T05:34:16;6.70;97.50
54178;DHT22;40085;53.004;6.770;2023-04-10T05:36:42;6.70;1.00
54178;DHT22;40085;53.004;6.770;2023-04-10T05:39:08;6.80;99.90
54178;DHT22;40085;53.004;6.770;2023-04-10T05:41:34;6.80;99.90
54178;DHT22;40085;53.004;6.770;2023-04-10T05:44:00;6.90;99.90
54178;DHT22;40085;53.004;6.770;2023-04-10T05:46:25;6.90;99.90
54178;DHT22;40085;53.004;6.770;2023-04-10T05:48:51;6.90;99.90
54178;DHT22;40085;53.004;6.770;2023-04-10T05:51:17;7.50;82.10
54178;DHT22;40085;53.004;6.770;2023-04-10T05:53:43;7.00;96.80
54178;DHT22;40085;53.004;6.770;2023-04-10T05:56:08;7.10;99.90
54178;DHT22;40085;53.004;6.770;2023-04-10T05:58:34;7.10;1.00
54178;DHT22;40085;53.004;6.770;2023-04-10T06:01:00;7.20;11.80
54178;DHT22;40085;53.004;6.770;2023-04-10T06:03:25;7.20;1.00
54178;DHT22;40085;53.004;6.770;2023-04-10T06:05:55;7.20;99.90
54178;DHT22;40085;53.004;6.770;2023-04-10T06:08:21;7.60;99.90
54178;DHT22;40085;53.004;6.770;2023-04-10T06:10:47;7.30;99.90
54178;DHT22;40085;53.004;6.770;2023-04-10T06:13:13;7.40;99.90
54178;DHT22;40085;53.004;6.770;2023-04-10T06:15:41;7.50;99.90
54178;DHT22;40085;53.004;6.770;2023-04-10T06:18:07;7.60;99.90
54178;DHT22;40085;53.004;6.770;2023-04-10T06:20:33;7.70;1.00
54178;DHT22;40085;53.004;6.770;2023-04-10T06:22:59;7.80;33.70
54178;DHT22;40085;53.004;6.770;2023-04-10T06:25:25;8.00;1.00
54178;DHT22;40085;53.004;6.770;2023-04-10T06:27:51;8.10;1.00
54178;DHT22;40085;53.004;6.770;2023-04-10T06:30:16;8.10;99.90
54178;DHT22;40085;53.004;6.770;2023-04-10T06:32:42;8.20;99.90
54178;DHT22;40085;53.004;6.770;2023-04-10T06:35:08;8.30;99.90
54178;DHT22;40085;53.004;6.770;2023-04-10T06:37:33;8.30;1.00
54178;DHT22;40085;53.004;6.770;2023-04-10T06:40:08;8.40;1.00
54178;DHT22;40085;53.004;6.770;2023-04-10T06:42:34;8.50;1.00
54178;DHT22;40085;53.004;6.770;2023-04-10T06:45:01;8.60;1.00
54178;DHT22;40085;53.004;6.770;2023-04-10T06:47:27;8.70;1.00
54178;DHT22;40085;53.004;6.770;2023-04-10T06:49:52;8.80;99.90
54178;DHT22;40085;53.004;6.770;2023-04-10T06:52:19;8.90;99.90
54178;DHT22;40085;53.004;6.770;2023-04-10T06:54:44;8.90;99.90
54178;DHT22;40085;53.004;6.770;2023-04-10T06:57:10;9.20;99.90
54178;DHT22;40085;53.004;6.770;2023-04-10T06:59:36;9.10;89.40
54178;DHT22;40085;53.004;6.770;2023-04-10T07:02:02;9.30;1.00
54178;DHT22;40085;53.004;6.770;2023-04-10T07:04:28;9.30;1.00
54178;DHT22;40085;53.004;6.770;2023-04-10T07:06:53;10.30;1.00
54178;DHT22;40085;53.004;6.770;2023-04-10T07:09:19;9.30;1.00
54178;DHT22;40085;53.004;6.770;2023-04-10T07:11:45;9.40;99.90
54178;DHT22;40085;53.004;6.770;2023-04-10T07:14:11;9.40;99.90
54178;DHT22;40085;53.004;6.770;2023-04-10T07:16:36;9.40;99.90
54178;DHT22;40085;53.004;6.770;2023-04-10T07:19:02;9.40;99.90
54178;DHT22;40085;53.004;6.770;2023-04-10T07:21:28;9.50;99.90
54178;DHT22;40085;53.004;6.770;2023-04-10T07:23:54;9.50;99.90
54178;DHT22;40085;53.004;6.770;2023-04-10T07:26:20;9.50;99.90
54178;DHT22;40085;53.004;6.770;2023-04-10T07:28:45;9.60;99.90
54178;DHT22;40085;53.004;6.770;2023-04-10T07:31:11;9.70;99.90
54178;DHT22;40085;53.004;6.770;2023-04-10T07:33:38;9.80;99.90
54178;DHT22;40085;53.004;6.770;2023-04-10T07:36:04;9.90;99.90
54178;DHT22;40085;53.004;6.770;2023-04-10T07:38:33;10.00;99.90
54178;DHT22;40085;53.004;6.770;2023-04-10T07:40:59;10.10;99.90
54178;DHT22;40085;53.004;6.770;2023-04-10T07:43:25;10.20;99.90
54178;DHT22;40085;53.004;6.770;2023-04-10T07:45:51;10.30;37.20
54178;DHT22;40085;53.004;6.770;2023-04-10T07:48:17;10.50;1.00
54178;DHT22;40085;53.004;6.770;2023-04-10T07:50:43;10.70;99.90
54178;DHT22;40085;53.004;6.770;2023-04-10T07:53:08;11.10;99.90
54178;DHT22;40085;53.004;6.770;2023-04-10T07:55:44;11.10;99.90
54178;DHT22;40085;53.004;6.770;2023-04-10T07:58:10;11.20;99.90
54178;DHT22;40085;53.004;6.770;2023-04-10T08:00:36;11.70;99.90
54178;DHT22;40085;53.004;6.770;2023-04-10T08:03:03;11.40;99.90
54178;DHT22;40085;53.004;6.770;2023-04-10T08:05:29;11.40;99.90
54178;DHT22;40085;53.004;6.770;2023-04-10T08:07:55;12.10;99.90
54178;DHT22;40085;53.004;6.770;2023-04-10T08:10:20;11.80;99.90
54178;DHT22;40085;53.004;6.770;2023-04-10T08:12:46;11.90;99.90
54178;DHT22;40085;53.004;6.770;2023-04-10T08:15:11;12.10;62.50
54178;DHT22;40085;53.004;6.770;2023-04-10T08:17:37;12.20;92.80
54178;DHT22;40085;53.004;6.770;2023-04-10T08:20:03;12.20;99.90
54178;DHT22;40085;53.004;6.770;2023-04-10T08:22:29;12.20;26.30
54178;DHT22;40085;53.004;6.770;2023-04-10T08:24:55;12.20;5.50
54178;DHT22;40085;53.004;6.770;2023-04-10T08:27:20;12.20;1.70
54178;DHT22;40085;53.004;6.770;2023-04-10T08:59:33;13.30;1.00
54178;DHT22;40085;53.004;6.770;2023-04-10T09:01:59;13.30;1.00
54178;DHT22;40085;53.004;6.770;2023-04-10T09:04:25;13.30;1.00
54178;DHT22;40085;53.004;6.770;2023-04-10T09:06:52;13.20;1.00
54178;DHT22;40085;53.004;6.770;2023-04-10T09:09:18;13.20;1.00
54178;DHT22;40085;53.004;6.770;2023-04-10T09:14:21;13.40;1.00
54178;DHT22;40085;53.004;6.770;2023-04-10T09:16:47;13.40;1.00
54178;DHT22;40085;53.004;6.770;2023-04-10T09:19:32;13.50;1.00
54178;DHT22;40085;53.004;6.770;2023-04-10T09:21:57;13.70;1.00
54178;DHT22;40085;53.004;6.770;2023-04-10T09:24:23;13.70;1.00
54178;DHT22;40085;53.004;6.770;2023-04-10T09:26:50;13.90;1.00
54178;DHT22;40085;53.004;6.770;2023-04-10T09:29:18;14.00;1.00
54178;DHT22;40085;53.004;6.770;2023-04-10T09:31:43;14.30;1.00
54178;DHT22;40085;53.004;6.770;2023-04-10T09:34:16;14.60;1.00
54178;DHT22;40085;53.004;6.770;2023-04-10T09:37:02;14.60;1.00
54178;DHT22;40085;53.004;6.770;2023-04-10T09:39:36;14.50;1.00
54178;DHT22;40085;53.004;6.770;2023-04-10T09:42:03;14.50;1.00
54178;DHT22;40085;53.004;6.770;2023-04-10T09:44:36;14.40;1.00
54178;DHT22;40085;53.004;6.770;2023-04-10T09:47:16;14.50;1.00
54178;DHT22;40085;53.004;6.770;2023-04-10T09:49:53;14.60;1.00
54178;DHT22;40085;53.004;6.770;2023-04-10T09:54:45;14.50;1.00
54178;DHT22;40085;53.004;6.770;2023-04-10T09:57:17;14.90;1.00
54178;DHT22;40085;53.004;6.770;2023-04-10T09:59:51;14.60;1.00
54178;DHT22;40085;53.004;6.770;2023-04-10T10:02:18;14.50;1.00
54178;DHT22;40085;53.004;6.770;2023-04-10T10:04:45;14.70;1.00
54178;DHT22;40085;53.004;6.770;2023-04-10T10:07:23;14.70;1.00
54178;DHT22;40085;53.004;6.770;2023-04-10T10:09:50;14.70;1.00
54178;DHT22;40085;53.004;6.770;2023-04-10T10:12:39;14.80;1.00
54178;DHT22;40085;53.004;6.770;2023-04-10T10:15:15;14.80;1.00
54178;DHT22;40085;53.004;6.770;2023-04-10T10:20:23;15.00;1.00
54178;DHT22;40085;53.004;6.770;2023-04-10T10:22:51;15.10;1.00
54178;DHT22;40085;53.004;6.770;2023-04-10T10:25:18;15.10;99.90
54178;DHT22;40085;53.004;6.770;2023-04-10T10:27:48;15.20;99.90
54178;DHT22;40085;53.004;6.770;2023-04-10T10:30:16;15.30;99.90
54178;DHT22;40085;53.004;6.770;2023-04-10T10:32:44;15.40;99.90
54178;DHT22;40085;53.004;6.770;2023-04-10T10:35:11;15.40;99.90
54178;DHT22;40085;53.004;6.770;2023-04-10T10:37:37;15.40;99.90
54178;DHT22;40085;53.004;6.770;2023-04-10T10:40:13;16.40;99.90
54178;DHT22;40085;53.004;6.770;2023-04-10T10:42:49;15.50;99.90
54178;DHT22;40085;53.004;6.770;2023-04-10T10:45:22;15.50;99.90
54178;DHT22;40085;53.004;6.770;2023-04-10T10:47:51;15.30;99.90
54178;DHT22;40085;53.004;6.770;2023-04-10T10:50:17;15.20;99.90
54178;DHT22;40085;53.004;6.770;2023-04-10T10:58:07;15.30;99.90
54178;DHT22;40085;53.004;6.770;2023-04-10T11:08:41;15.20;99.90
54178;DHT22;40085;53.004;6.770;2023-04-10T11:19:11;15.30;99.90
54178;DHT22;40085;53.004;6.770;2023-04-10T11:22:04;15.40;99.90
54178;DHT22;40085;53.004;6.770;2023-04-10T11:24:50;15.30;99.90
54178;DHT22;40085;53.004;6.770;2023-04-10T11:27:42;15.30;99.90
54178;DHT22;40085;53.004;6.770;2023-04-10T11:30:29;15.30;99.90
54178;DHT22;40085;53.004;6.770;2023-04-10T11:32:55;15.30;99.90
54178;DHT22;40085;53.004;6.770;2023-04-10T11:35:21;15.40;99.90
54178;DHT22;40085;53.004;6.770;2023-04-10T11:37:47;15.50;99.90
54178;DHT22;40085;53.004;6.770;2023-04-10T11:40:12;16.10;99.90
54178;DHT22;40085;53.004;6.770;2023-04-10T11:42:38;15.60;99.90
54178;DHT22;40085;53.004;6.770;2023-04-10T11:45:30;15.60;99.90
54178;DHT22;40085;53.004;6.770;2023-04-10T11:47:56;15.60;99.90
54178;DHT22;40085;53.004;6.770;2023-04-10T11:50:21;15.60;99.90
54178;DHT22;40085;53.004;6.770;2023-04-10T11:52:49;15.60;99.90
54178;DHT22;40085;53.004;6.770;2023-04-10T11:55:15;15.60;99.90
54178;DHT22;40085;53.004;6.770;2023-04-10T11:57:41;15.70;99.90
54178;DHT22;40085;53.004;6.770;2023-04-10T12:00:08;15.70;99.90
54178;DHT22;40085;53.004;6.770;2023-04-10T12:02:34;15.70;99.90
54178;DHT22;40085;53.004;6.770;2023-04-10T12:05:12;15.80;99.90
54178;DHT22;40085;53.004;6.770;2023-04-10T12:07:38;15.90;99.90
54178;DHT22;40085;53.004;6.770;2023-04-10T12:10:04;16.00;99.90
54178;DHT22;40085;53.004;6.770;2023-04-10T12:12:34;16.00;99.90
54178;DHT22;40085;53.004;6.770;2023-04-10T12:15:06;16.20;99.90
54178;DHT22;40085;53.004;6.770;2023-04-10T12:17:47;16.30;99.90
54178;DHT22;40085;53.004;6.770;2023-04-10T12:20:14;16.40;99.90
54178;DHT22;40085;53.004;6.770;2023-04-10T12:22:40;16.40;99.90
54178;DHT22;40085;53.004;6.770;2023-04-10T12:25:11;17.20;99.90
54178;DHT22;40085;53.004;6.770;2023-04-10T12:27:36;16.70;99.90
54178;DHT22;40085;53.004;6.770;2023-04-10T12:30:06;16.80;99.90
54178;DHT22;40085;53.004;6.770;2023-04-10T12:34:59;17.10;99.90
54178;DHT22;40085;53.004;6.770;2023-04-10T12:37:50;17.30;99.90
54178;DHT22;40085;53.004;6.770;2023-04-10T12:40:17;17.30;99.90
54178;DHT22;40085;53.004;6.770;2023-04-10T12:42:43;17.50;99.90
54178;DHT22;40085;53.004;6.770;2023-04-10T12:45:09;17.40;99.90
54178;DHT22;40085;53.004;6.770;2023-04-10T12:47:45;17.50;99.90
54178;DHT22;40085;53.004;6.770;2023-04-10T12:50:16;17.30;99.90
54178;DHT22;40085;53.004;6.770;2023-04-10T12:53:00;17.00;99.90
54178;DHT22;40085;53.004;6.770;2023-04-10T12:55:25;17.40;99.90
54178;DHT22;40085;53.004;6.770;2023-04-10T12:57:53;16.80;99.90
54178;DHT22;40085;53.004;6.770;2023-04-10T13:00:19;16.40;99.90
54178;DHT22;40085;53.004;6.770;2023-04-10T13:02:46;16.70;99.90
54178;DHT22;40085;53.004;6.770;2023-04-10T13:05:13;16.60;99.90
54178;DHT22;40085;53.004;6.770;2023-04-10T13:07:39;17.10;99.90
54178;DHT22;40085;53.004;6.770;2023-04-10T13:10:06;16.50;99.90
54178;DHT22;40085;53.004;6.770;2023-04-10T13:12:32;16.50;99.90
54178;DHT22;40085;53.004;6.770;2023-04-10T13:14:59;16.10;99.90
54178;DHT22;40085;53.004;6.770;2023-04-10T13:17:26;16.40;99.90
54178;DHT22;40085;53.004;6.770;2023-04-10T13:19:52;16.40;99.90
54178;DHT22;40085;53.004;6.770;2023-04-10T13:22:18;16.40;99.90
54178;DHT22;40085;53.004;6.770;2023-04-10T13:24:43;16.40;99.90
54178;DHT22;40085;53.004;6.770;2023-04-10T13:27:09;16.50;99.90
54178;DHT22;40085;53.004;6.770;2023-04-10T13:29:36;16.50;99.90
54178;DHT22;40085;53.004;6.770;2023-04-10T13:32:02;16.40;99.90
54178;DHT22;40085;53.004;6.770;2023-04-10T13:34:30;17.20;99.90
54178;DHT22;40085;53.004;6.770;2023-04-10T13:36:56;16.40;99.90
54178;DHT22;40085;53.004;6.770;2023-04-10T13:39:22;16.40;99.90
54178;DHT22;40085;53.004;6.770;2023-04-10T13:41:47;16.40;99.90
54178;DHT22;40085;53.004;6.770;2023-04-10T13:44:13;16.40;99.90
54178;DHT22;40085;53.004;6.770;2023-04-10T13:46:39;16.40;99.90
54178;DHT22;40085;53.004;6.770;2023-04-10T13:49:04;16.30;99.90
54178;DHT22;40085;53.004;6.770;2023-04-10T13:51:30;16.40;99.90
54178;DHT22;40085;53.004;6.770;2023-04-10T13:53:55;16.10;99.90
54178;DHT22;40085;53.004;6.770;2023-04-10T13:56:21;16.90;99.90
54178;DHT22;40085;53.004;6.770;2023-04-10T13:58:47;16.10;99.90
54178;DHT22;40085;53.004;6.770;2023-04-10T14:01:13;16.20;99.90
54178;DHT22;40085;53.004;6.770;2023-04-10T14:03:39;16.20;99.90
54178;DHT22;40085;53.004;6.770;2023-04-10T14:06:05;16.10;99.90
54178;DHT22;40085;53.004;6.770;2023-04-10T14:08:30;16.10;99.90
54178;DHT22;40085;53.004;6.770;2023-04-10T14:10:56;16.70;99.90
54178;DHT22;40085;53.004;6.770;2023-04-10T14:13:21;16.00;99.90
54178;DHT22;40085;53.004;6.770;2023-04-10T14:15:47;16.00;99.90
54178;DHT22;40085;53.004;6.770;2023-04-10T14:18:13;16.00;99.90
54178;DHT22;40085;53.004;6.770;2023-04-10T14:20:42;15.70;99.90
54178;DHT22;40085;53.004;6.770;2023-04-10T14:23:08;15.90;99.90
54178;DHT22;40085;53.004;6.770;2023-04-10T14:25:41;15.90;99.90
54178;DHT22;40085;53.004;6.770;2023-04-10T14:28:06;16.30;99.90
54178;DHT22;40085;53.004;6.770;2023-04-10T14:30:33;16.00;99.90
54178;DHT22;40085;53.004;6.770;2023-04-10T14:32:58;16.30;1.00
54178;DHT22;40085;53.004;6.770;2023-04-10T14:35:24;16.50;1.00
54178;DHT22;40085;53.004;6.770;2023-04-10T14:37:49;16.30;1.00
54178;DHT22;40085;53.004;6.770;2023-04-10T14:40:15;15.90;1.00
54178;DHT22;40085;53.004;6.770;2023-04-10T14:42:41;16.20;1.00
54178;DHT22;40085;53.004;6.770;2023-04-10T14:45:07;16.20;1.00
54178;DHT22;40085;53.004;6.770;2023-04-10T14:47:32;15.70;1.00
54178;DHT22;40085;53.004;6.770;2023-04-10T14:49:58;15.60;1.00
54178;DHT22;40085;53.004;6.770;2023-04-10T14:52:23;15.70;1.00
54178;DHT22;40085;53.004;6.770;2023-04-10T14:54:49;16.30;1.00
54178;DHT22;40085;53.004;6.770;2023-04-10T14:57:15;15.60;1.00
54178;DHT22;40085;53.004;6.770;2023-04-10T14:59:41;15.40;1.00
54178;DHT22;40085;53.004;6.770;2023-04-10T15:02:07;15.90;1.00
54178;DHT22;40085;53.004;6.770;2023-04-10T15:04:33;15.90;1.00
54178;DHT22;40085;53.004;6.770;2023-04-10T15:06:58;15.70;7.00
54178;DHT22;40085;53.004;6.770;2023-04-10T15:09:24;16.10;8.20
54178;DHT22;40085;53.004;6.770;2023-04-10T15:11:50;15.60;9.10
54178;DHT22;40085;53.004;6.770;2023-04-10T15:14:15;15.40;6.30
54178;DHT22;40085;53.004;6.770;2023-04-10T15:16:41;16.30;7.00
54178;DHT22;40085;53.004;6.770;2023-04-10T15:19:07;15.40;21.80
54178;DHT22;40085;53.004;6.770;2023-04-10T15:21:32;15.40;41.20
54178;DHT22;40085;53.004;6.770;2023-04-10T15:23:58;15.30;46.20
54178;DHT22;40085;53.004;6.770;2023-04-10T15:26:23;15.60;51.30
54178;DHT22;40085;53.004;6.770;2023-04-10T15:28:51;15.40;50.60
54178;DHT22;40085;53.004;6.770;2023-04-10T15:31:20;15.30;8.60
54178;DHT22;40085;53.004;6.770;2023-04-10T15:33:46;15.50;61.40
54178;DHT22;40085;53.004;6.770;2023-04-10T15:36:12;15.40;90.10
54178;DHT22;40085;53.004;6.770;2023-04-10T15:38:37;15.00;99.90
54178;DHT22;40085;53.004;6.770;2023-04-10T15:41:10;14.30;99.90
54178;DHT22;40085;53.004;6.770;2023-04-10T15:43:36;14.30;99.90
54178;DHT22;40085;53.004;6.770;2023-04-10T15:46:02;14.80;99.90
54178;DHT22;40085;53.004;6.770;2023-04-10T15:48:28;14.10;99.90
54178;DHT22;40085;53.004;6.770;2023-04-10T15:50:54;14.00;99.90
54178;DHT22;40085;53.004;6.770;2023-04-10T15:53:19;14.00;99.90
54178;DHT22;40085;53.004;6.770;2023-04-10T15:55:45;14.00;99.90
54178;DHT22;40085;53.004;6.770;2023-04-10T15:58:11;14.00;99.90
54178;DHT22;40085;53.004;6.770;2023-04-10T16:00:36;14.10;99.90
54178;DHT22;40085;53.004;6.770;2023-04-10T16:03:02;14.10;99.90
54178;DHT22;40085;53.004;6.770;2023-04-10T16:05:27;14.70;99.90
54178;DHT22;40085;53.004;6.770;2023-04-10T16:07:54;13.80;99.90
54178;DHT22;40085;53.004;6.770;2023-04-10T16:10:19;14.10;99.90
54178;DHT22;40085;53.004;6.770;2023-04-10T16:12:45;14.00;99.90
54178;DHT22;40085;53.004;6.770;2023-04-10T16:15:11;14.00;99.90
54178;DHT22;40085;53.004;6.770;2023-04-10T16:17:36;14.00;99.90
54178;DHT22;40085;53.004;6.770;2023-04-10T16:20:06;14.00;99.90
54178;DHT22;40085;53.004;6.770;2023-04-10T16:22:31;14.00;99.90
54178;DHT22;40085;53.004;6.770;2023-04-10T16:24:58;14.00;99.90
54178;DHT22;40085;53.004;6.770;2023-04-10T16:27:24;14.00;99.90
54178;DHT22;40085;53.004;6.770;2023-04-10T16:29:49;14.00;99.90
54178;DHT22;40085;53.004;6.770;2023-04-10T16:32:16;14.90;99.90
54178;DHT22;40085;53.004;6.770;2023-04-10T16:34:42;14.40;99.90
54178;DHT22;40085;53.004;6.770;2023-04-10T16:37:08;13.80;99.90
54178;DHT22;40085;53.004;6.770;2023-04-10T16:39:33;13.70;99.90
54178;DHT22;40085;53.004;6.770;2023-04-10T16:41:59;13.60;99.90
54178;DHT22;40085;53.004;6.770;2023-04-10T16:44:28;14.30;99.90
54178;DHT22;40085;53.004;6.770;2023-04-10T16:46:53;13.50;1.00
54178;DHT22;40085;53.004;6.770;2023-04-10T16:49:19;13.50;1.00
54178;DHT22;40085;53.004;6.770;2023-04-10T16:51:49;13.20;20.50
54178;DHT22;40085;53.004;6.770;2023-04-10T16:54:15;13.10;99.90